Time;durP1;ratioP1;P1;durP2;ratioP2;P2;SDS_P1;SDS_P2;PMS_P1;PMS_P2;Temp;Humidity;BMP_temperature;BMP_pressure;BME280_temperature;BME280_humidity;BME280_pressure;Samples;Min_cycle;Max_cycle;Signal;HPM_P1;HPM_P2
2022/06/01 00:01:19;;;;;;;11.95;9.68;;;;;;;;;;5042003;28;20236;-69
2022/06/01 00:03:44;;;;;;;12.07;9.95;;;;;;;;;;5034836;28;20186;-69
2022/06/01 00:06:11;;;;;;;10.35;8.55;;;;;;;;;;5043146;28;20268;-69
2022/06/01 00:08:38;;;;;;;12.20;8.95;;;;;;;;;;5037453;28;20184;-69
2022/06/01 00:11:04;;;;;;;12.40;8.27;;;;;;;;;;5031393;28;20217;-69
2022/06/01 00:13:30;;;;;;;11.52;8.65;;;;;;;;;;5029510;28;20564;-70
2022/06/01 00:15:56;;;;;;;11.32;8.50;;;;;;;;;;5030345;28;20685;-69
2022/06/01 00:18:22;;;;;;;11.07;8.98;;;;;;;;;;5037261;28;20225;-69
2022/06/01 00:20:48;;;;;;;10.98;8.20;;;;;;;;;;5031951;28;20181;-69
2022/06/01 00:23:14;;;;;;;11.60;8.88;;;;;;;;;;5044538;28;20192;-67
2022/06/01 00:25:41;;;;;;;9.38;8.32;;;;;;;;;;5041576;28;20626;-67
2022/06/01 00:28:07;;;;;;;12.93;8.70;;;;;;;;;;5030263;28;20232;-68
2022/06/01 00:30:32;;;;;;;10.50;8.63;;;;;;;;;;5043438;28;20178;-68
2022/06/01 00:32:57;;;;;;;12.80;9.82;;;;;;;;;;5041302;28;20276;-68
2022/06/01 00:35:24;;;;;;;16.90;9.45;;;;;;;;;;5034611;28;20218;-69
2022/06/01 00:37:49;;;;;;;14.25;9.75;;;;;;;;;;5034362;28;20537;-67
2022/06/01 00:40:18;;;;;;;12.02;9.68;;;;;;;;;;5034878;28;20185;-68
2022/06/01 00:42:46;;;;;;;13.90;9.57;;;;;;;;;;5035821;28;20368;-69
2022/06/01 00:45:14;;;;;;;12.23;9.68;;;;;;;;;;5038509;28;20779;-68
2022/06/01 00:47:39;;;;;;;10.55;8.93;;;;;;;;;;5038753;28;20178;-68
2022/06/01 00:50:17;;;;;;;10.07;8.95;;;;;;;;;;5035505;28;20193;-67
2022/06/01 00:52:52;;;;;;;9.80;8.80;;;;;;;;;;5034005;28;20211;-66
2022/06/01 00:55:28;;;;;;;11.60;10.32;;;;;;;;;;5032073;28;20177;-67
2022/06/01 00:57:58;;;;;;;11.77;9.35;;;;;;;;;;5036468;28;20212;-67
2022/06/01 01:00:27;;;;;;;11.10;9.60;;;;;;;;;;5041081;28;20177;-69
2022/06/01 01:02:55;;;;;;;14.13;10.13;;;;;;;;;;5032956;28;20585;-68
2022/06/01 01:05:22;;;;;;;12.90;10.30;;;;;;;;;;5033927;28;20176;-68
2022/06/01 01:07:48;;;;;;;13.27;10.40;;;;;;;;;;5029442;28;20174;-69
2022/06/01 01:10:15;;;;;;;13.23;10.25;;;;;;;;;;5034135;28;20478;-68
2022/06/01 01:12:56;;;;;;;13.20;10.27;;;;;;;;;;5033277;28;20228;-69
2022/06/01 01:15:26;;;;;;;13.27;10.50;;;;;;;;;;5039114;28;20640;-69
2022/06/01 01:17:54;;;;;;;16.08;10.82;;;;;;;;;;5043553;28;20288;-69
2022/06/01 01:20:20;;;;;;;14.43;10.52;;;;;;;;;;5046357;28;20693;-69
2022/06/01 01:23:05;;;;;;;12.13;10.55;;;;;;;;;;5041213;28;20181;-69
2022/06/01 01:25:38;;;;;;;14.75;11.98;;;;;;;;;;5031975;28;20482;-69
2022/06/01 01:28:05;;;;;;;14.93;11.98;;;;;;;;;;5036554;28;20203;-70
2022/06/01 01:30:37;;;;;;;17.25;13.55;;;;;;;;;;5029146;28;20200;-69
2022/06/01 01:33:05;;;;;;;17.63;12.82;;;;;;;;;;5031554;28;20210;-69
2022/06/01 01:35:31;;;;;;;15.35;12.27;;;;;;;;;;5037640;28;20697;-69
2022/06/01 01:37:59;;;;;;;17.17;12.68;;;;;;;;;;5032094;28;20228;-69
2022/06/01 01:40:25;;;;;;;16.73;12.30;;;;;;;;;;5036891;28;20599;-69
2022/06/01 01:42:52;;;;;;;16.00;13.18;;;;;;;;;;5041045;28;20188;-70
2022/06/01 01:45:28;;;;;;;15.57;12.88;;;;;;;;;;5034025;28;20177;-70
2022/06/01 01:47:54;;;;;;;18.73;14.65;;;;;;;;;;5034579;28;20398;-69
2022/06/01 01:50:21;;;;;;;17.83;14.55;;;;;;;;;;5041308;28;20606;-71
2022/06/01 01:52:47;;;;;;;19.40;14.90;;;;;;;;;;5034593;28;20214;-71
2022/06/01 01:55:34;;;;;;;22.65;15.82;;;;;;;;;;5043625;28;20421;-72
2022/06/01 01:58:14;;;;;;;21.20;16.15;;;;;;;;;;5038631;28;20567;-72
2022/06/01 02:00:45;;;;;;;23.70;16.27;;;;;;;;;;5045233;28;20184;-72
2022/06/01 02:03:35;;;;;;;23.27;17.58;;;;;;;;;;5041893;28;20185;-71
2022/06/01 02:06:25;;;;;;;23.00;17.77;;;;;;;;;;5041677;28;20261;-72
2022/06/01 02:09:01;;;;;;;25.27;18.65;;;;;;;;;;5047353;28;20229;-72
2022/06/01 02:14:28;;;;;;;26.25;18.98;;;;;;;;;;5033672;28;20498;-72
2022/06/01 02:17:07;;;;;;;27.20;20.10;;;;;;;;;;5032477;28;20504;-72
2022/06/01 02:19:41;;;;;;;22.10;17.73;;;;;;;;;;5030191;28;20236;-72
2022/06/01 02:22:08;;;;;;;24.90;18.23;;;;;;;;;;5033292;28;20181;-72
2022/06/01 02:24:34;;;;;;;25.23;18.95;;;;;;;;;;5037375;28;20177;-72
2022/06/01 02:27:00;;;;;;;24.80;18.92;;;;;;;;;;5043407;28;20680;-72
2022/06/01 02:29:35;;;;;;;24.80;17.05;;;;;;;;;;5043066;28;20182;-72
2022/06/01 02:32:02;;;;;;;23.98;18.30;;;;;;;;;;5043384;28;20266;-71
2022/06/01 02:34:29;;;;;;;21.15;16.35;;;;;;;;;;5040028;28;20189;-71
2022/06/01 02:36:56;;;;;;;23.13;18.40;;;;;;;;;;5042772;28;20198;-71
2022/06/01 02:39:23;;;;;;;23.63;17.10;;;;;;;;;;5033017;28;20181;-72
2022/06/01 02:44:32;;;;;;;25.05;17.33;;;;;;;;;;5049616;28;20239;-72
2022/06/01 02:46:58;;;;;;;24.05;18.33;;;;;;;;;;5036692;28;20603;-72
2022/06/01 02:49:23;;;;;;;25.35;17.88;;;;;;;;;;5033306;28;20189;-72
2022/06/01 02:51:48;;;;;;;26.23;18.58;;;;;;;;;;5039967;28;20189;-72
2022/06/01 02:54:14;;;;;;;23.70;18.58;;;;;;;;;;5044154;28;21046;-72
2022/06/01 02:56:39;;;;;;;23.38;18.15;;;;;;;;;;5038959;28;20225;-72
2022/06/01 02:59:05;;;;;;;23.50;18.35;;;;;;;;;;5043517;28;20400;-72
2022/06/01 03:01:32;;;;;;;27.40;18.85;;;;;;;;;;5037021;28;20501;-72
2022/06/01 03:03:57;;;;;;;25.23;17.33;;;;;;;;;;5034855;28;20206;-71
2022/06/01 03:06:23;;;;;;;28.25;19.67;;;;;;;;;;5034172;28;20212;-72
2022/06/01 03:08:48;;;;;;;23.05;18.77;;;;;;;;;;5039158;28;20263;-71
2022/06/01 03:11:14;;;;;;;28.90;20.52;;;;;;;;;;5038171;28;20652;-72
2022/06/01 03:13:39;;;;;;;26.30;20.13;;;;;;;;;;5046130;28;20230;-71
2022/06/01 03:16:05;;;;;;;27.60;21.02;;;;;;;;;;5042980;28;20209;-71
2022/06/01 03:18:34;;;;;;;28.42;20.60;;;;;;;;;;5043305;28;20178;-71
2022/06/01 03:20:59;;;;;;;28.15;21.25;;;;;;;;;;5040336;28;20269;-71
2022/06/01 03:23:26;;;;;;;32.25;22.55;;;;;;;;;;5039445;28;20264;-71
2022/06/01 03:25:51;;;;;;;28.83;21.77;;;;;;;;;;5032764;28;20170;-72
2022/06/01 03:28:17;;;;;;;29.58;22.90;;;;;;;;;;5036997;28;20245;-73
2022/06/01 03:30:43;;;;;;;32.70;21.92;;;;;;;;;;5036655;28;20189;-73
2022/06/01 03:33:13;;;;;;;30.00;23.27;;;;;;;;;;5047092;28;20186;-73
2022/06/01 03:35:40;;;;;;;33.72;25.27;;;;;;;;;;5029998;28;20206;-74
2022/06/01 03:38:06;;;;;;;30.27;22.83;;;;;;;;;;5034002;28;20412;-73
2022/06/01 03:40:33;;;;;;;30.23;22.52;;;;;;;;;;5034449;28;20579;-74
2022/06/01 03:42:59;;;;;;;33.00;23.00;;;;;;;;;;5031846;28;20174;-74
2022/06/01 03:48:09;;;;;;;32.67;23.83;;;;;;;;;;5035449;28;20185;-74
2022/06/01 03:50:35;;;;;;;31.83;23.33;;;;;;;;;;5045191;28;20178;-75
2022/06/01 03:53:02;;;;;;;32.42;23.88;;;;;;;;;;5043360;28;20235;-74
2022/06/01 03:55:28;;;;;;;30.55;23.38;;;;;;;;;;5031905;28;22113;-74
2022/06/01 03:57:54;;;;;;;33.40;24.55;;;;;;;;;;5038778;28;20177;-74
2022/06/01 04:00:22;;;;;;;31.95;23.60;;;;;;;;;;5034155;28;20525;-75
2022/06/01 04:02:48;;;;;;;31.85;22.88;;;;;;;;;;5032858;28;20334;-74
2022/06/01 04:05:14;;;;;;;32.95;24.60;;;;;;;;;;5032430;28;20309;-74
2022/06/01 04:07:39;;;;;;;32.08;23.60;;;;;;;;;;5034257;28;20275;-73
2022/06/01 04:10:06;;;;;;;29.60;22.92;;;;;;;;;;5032157;28;20174;-74
2022/06/01 04:12:31;;;;;;;33.70;24.42;;;;;;;;;;5029246;28;20256;-74
2022/06/01 04:14:56;;;;;;;33.45;24.08;;;;;;;;;;5043340;28;20190;-74
2022/06/01 04:17:22;;;;;;;31.60;23.85;;;;;;;;;;5036035;28;20287;-74
2022/06/01 04:19:47;;;;;;;33.08;24.13;;;;;;;;;;5038348;28;20185;-74
2022/06/01 04:22:14;;;;;;;32.70;24.05;;;;;;;;;;5031784;28;20348;-75
2022/06/01 04:24:40;;;;;;;33.22;25.65;;;;;;;;;;5046967;28;20657;-75
2022/06/01 04:27:05;;;;;;;34.78;25.67;;;;;;;;;;5032922;28;20178;-75
2022/06/01 04:29:31;;;;;;;34.40;25.85;;;;;;;;;;5032868;28;20183;-74
2022/06/01 04:32:27;;;;;;;33.47;25.65;;;;;;;;;;5033678;28;20220;-74
2022/06/01 04:34:52;;;;;;;35.38;25.80;;;;;;;;;;5033017;28;20221;-74
2022/06/01 04:37:17;;;;;;;36.60;26.45;;;;;;;;;;5042851;28;20219;-72
2022/06/01 04:39:43;;;;;;;32.03;23.27;;;;;;;;;;5039561;28;20897;-73
2022/06/01 04:42:08;;;;;;;34.67;25.88;;;;;;;;;;5044017;28;20235;-73
2022/06/01 04:44:34;;;;;;;33.35;25.05;;;;;;;;;;5034820;28;20181;-74
2022/06/01 04:46:59;;;;;;;30.67;23.48;;;;;;;;;;5048700;28;20174;-73
2022/06/01 04:49:24;;;;;;;31.05;24.00;;;;;;;;;;5042873;28;20185;-73
2022/06/01 04:51:50;;;;;;;31.52;22.65;;;;;;;;;;5032875;28;20184;-73
2022/06/01 04:54:16;;;;;;;32.08;24.00;;;;;;;;;;5037704;28;20692;-73
2022/06/01 04:56:41;;;;;;;33.35;24.98;;;;;;;;;;5036892;28;20205;-73
2022/06/01 04:59:06;;;;;;;32.55;23.13;;;;;;;;;;5030809;28;20186;-73
2022/06/01 05:01:32;;;;;;;32.67;24.83;;;;;;;;;;5034639;28;20170;-72
2022/06/01 05:03:57;;;;;;;32.88;23.67;;;;;;;;;;5027446;28;20614;-72
2022/06/01 05:06:24;;;;;;;26.58;20.58;;;;;;;;;;5028890;28;20206;-73
2022/06/01 05:08:50;;;;;;;26.35;20.52;;;;;;;;;;5030091;28;20708;-72
2022/06/01 05:11:15;;;;;;;29.77;22.63;;;;;;;;;;5032485;28;20213;-73
2022/06/01 05:13:41;;;;;;;30.02;21.50;;;;;;;;;;5037371;28;20224;-73
2022/06/01 05:16:06;;;;;;;24.58;19.63;;;;;;;;;;5040865;28;20206;-72
2022/06/01 05:18:32;;;;;;;19.52;15.27;;;;;;;;;;5049379;28;20200;-70
2022/06/01 05:20:58;;;;;;;23.50;18.25;;;;;;;;;;5044968;28;20186;-73
2022/06/01 05:23:25;;;;;;;21.95;17.33;;;;;;;;;;5035233;28;20269;-71
2022/06/01 05:25:52;;;;;;;23.70;17.45;;;;;;;;;;5034184;28;20185;-73
2022/06/01 05:28:23;;;;;;;19.25;15.68;;;;;;;;;;5034630;28;20175;-67
2022/06/01 05:30:48;;;;;;;17.98;13.25;;;;;;;;;;5043212;28;20248;-69
2022/06/01 05:33:14;;;;;;;16.75;14.00;;;;;;;;;;5046440;28;20712;-70
2022/06/01 05:35:39;;;;;;;22.13;15.27;;;;;;;;;;5047240;28;20197;-72
2022/06/01 05:38:05;;;;;;;18.65;15.55;;;;;;;;;;5037699;28;20186;-70
2022/06/01 05:40:31;;;;;;;16.17;12.50;;;;;;;;;;5041443;28;20177;-71
2022/06/01 05:42:57;;;;;;;15.10;13.07;;;;;;;;;;5034616;28;20377;-71
2022/06/01 05:45:23;;;;;;;16.75;13.35;;;;;;;;;;5045775;28;20621;-72
2022/06/01 05:47:48;;;;;;;15.50;13.30;;;;;;;;;;5052981;28;20203;-72
2022/06/01 05:50:14;;;;;;;15.98;12.93;;;;;;;;;;5045823;28;20189;-72
2022/06/01 05:52:39;;;;;;;14.85;12.35;;;;;;;;;;5040909;28;20213;-71
2022/06/01 05:55:09;;;;;;;16.08;12.90;;;;;;;;;;5034576;28;20214;-71
2022/06/01 05:57:35;;;;;;;16.33;12.90;;;;;;;;;;5029919;28;20209;-72
2022/06/01 06:00:03;;;;;;;16.88;12.98;;;;;;;;;;5035839;28;20170;-72
2022/06/01 06:02:28;;;;;;;15.90;12.85;;;;;;;;;;5039016;28;20264;-72
2022/06/01 06:04:54;;;;;;;15.48;11.88;;;;;;;;;;5039016;28;20219;-68
2022/06/01 06:07:19;;;;;;;18.23;13.63;;;;;;;;;;5038310;28;20169;-72
2022/06/01 06:09:45;;;;;;;15.13;12.25;;;;;;;;;;5036454;28;20181;-70
2022/06/01 06:12:10;;;;;;;17.83;13.13;;;;;;;;;;5040748;28;20300;-70
2022/06/01 06:14:35;;;;;;;18.38;14.00;;;;;;;;;;5036830;28;20174;-70
2022/06/01 06:17:01;;;;;;;15.73;13.30;;;;;;;;;;5036450;28;20264;-71
2022/06/01 06:19:26;;;;;;;16.10;13.07;;;;;;;;;;5036666;28;20435;-72
2022/06/01 06:21:51;;;;;;;20.08;13.65;;;;;;;;;;5041733;28;20186;-72
2022/06/01 06:24:20;;;;;;;17.60;14.07;;;;;;;;;;5032299;28;20613;-73
2022/06/01 06:26:46;;;;;;;20.95;14.35;;;;;;;;;;5034121;28;20589;-72
2022/06/01 06:29:14;;;;;;;17.92;14.77;;;;;;;;;;5033582;28;20207;-72
2022/06/01 06:31:40;;;;;;;17.63;13.63;;;;;;;;;;5040502;28;20264;-71
2022/06/01 06:34:06;;;;;;;17.73;13.80;;;;;;;;;;5042623;28;20186;-71
2022/06/01 06:36:32;;;;;;;19.70;14.30;;;;;;;;;;5044591;28;20288;-70
2022/06/01 06:38:57;;;;;;;16.88;13.55;;;;;;;;;;5045524;28;20531;-70
2022/06/01 06:41:23;;;;;;;17.55;14.27;;;;;;;;;;5035540;28;20178;-70
2022/06/01 06:43:49;;;;;;;20.02;14.63;;;;;;;;;;5041675;28;20182;-72
2022/06/01 06:46:18;;;;;;;19.33;14.85;;;;;;;;;;5035357;28;20193;-67
2022/06/01 06:48:45;;;;;;;19.10;14.75;;;;;;;;;;5032068;28;20285;-70
2022/06/01 06:51:12;;;;;;;19.30;14.48;;;;;;;;;;5042409;28;20627;-72
2022/06/01 06:53:38;;;;;;;21.30;13.40;;;;;;;;;;5038778;28;20239;-72
2022/06/01 06:56:04;;;;;;;15.77;13.13;;;;;;;;;;5033987;28;20614;-73
2022/06/01 06:58:29;;;;;;;15.00;12.25;;;;;;;;;;5033236;28;20182;-70
2022/06/01 07:00:55;;;;;;;17.50;13.15;;;;;;;;;;5030625;28;20201;-71
2022/06/01 07:03:20;;;;;;;18.00;12.70;;;;;;;;;;5039745;28;20178;-69
2022/06/01 07:08:31;;;;;;;14.95;12.27;;;;;;;;;;5039069;28;20215;-71
2022/06/01 07:10:59;;;;;;;13.63;10.88;;;;;;;;;;5041636;28;20177;-66
2022/06/01 07:13:27;;;;;;;15.60;10.65;;;;;;;;;;5028846;28;20252;-72
2022/06/01 07:16:03;;;;;;;12.60;9.02;;;;;;;;;;5043665;28;20439;-66
2022/06/01 07:18:29;;;;;;;14.45;10.98;;;;;;;;;;5032761;28;20525;-68
2022/06/01 07:20:54;;;;;;;13.10;9.65;;;;;;;;;;5045239;28;20197;-66
2022/06/01 07:23:19;;;;;;;13.15;9.65;;;;;;;;;;5030548;28;20216;-71
2022/06/01 07:25:45;;;;;;;12.32;9.77;;;;;;;;;;5034280;28;20181;-71
2022/06/01 07:28:10;;;;;;;10.93;9.05;;;;;;;;;;5032331;28;20186;-71
2022/06/01 07:30:35;;;;;;;11.98;9.88;;;;;;;;;;5045481;28;20174;-70
2022/06/01 07:33:01;;;;;;;10.98;8.77;;;;;;;;;;5034226;28;20264;-69
2022/06/01 07:35:26;;;;;;;13.15;8.60;;;;;;;;;;5048417;28;20644;-71
2022/06/01 07:43:21;;;;;;;6.72;5.55;;;;;;;;;;5035720;28;20246;-66
2022/06/01 07:45:49;;;;;;;6.75;5.18;;;;;;;;;;5033730;28;20217;-72
2022/06/01 07:48:16;;;;;;;9.55;6.07;;;;;;;;;;5040606;28;20173;-72
2022/06/01 07:50:42;;;;;;;9.27;5.72;;;;;;;;;;5034882;28;20186;-71
2022/06/01 07:53:09;;;;;;;8.55;5.20;;;;;;;;;;5035472;28;20178;-68
2022/06/01 07:55:36;;;;;;;5.65;4.30;;;;;;;;;;5031768;28;20189;-73
2022/06/01 07:58:02;;;;;;;4.93;3.72;;;;;;;;;;5036391;28;20578;-71
2022/06/01 08:00:28;;;;;;;5.10;4.18;;;;;;;;;;5036613;28;20470;-67
2022/06/01 08:02:54;;;;;;;4.93;4.43;;;;;;;;;;5037632;28;20178;-70
2022/06/01 08:05:20;;;;;;;4.97;4.47;;;;;;;;;;5036352;28;20201;-69
2022/06/01 08:07:46;;;;;;;6.20;4.18;;;;;;;;;;5029515;28;20209;-69
2022/06/01 08:10:15;;;;;;;6.30;4.13;;;;;;;;;;5035582;28;20193;-71
2022/06/01 08:15:26;;;;;;;4.33;3.87;;;;;;;;;;5033429;28;20799;-66
2022/06/01 08:17:57;;;;;;;4.93;4.07;;;;;;;;;;5031030;28;20265;-71
2022/06/01 08:20:23;;;;;;;6.00;4.68;;;;;;;;;;5030858;28;20561;-71
2022/06/01 08:22:48;;;;;;;4.65;3.85;;;;;;;;;;5032383;28;20201;-68
2022/06/01 08:25:18;;;;;;;7.15;4.30;;;;;;;;;;5033980;28;20174;-72
2022/06/01 08:27:45;;;;;;;3.53;3.22;;;;;;;;;;5034905;28;20180;-72
2022/06/01 08:30:11;;;;;;;6.88;3.70;;;;;;;;;;5029014;28;20458;-71
2022/06/01 08:32:37;;;;;;;5.30;3.67;;;;;;;;;;5028638;28;20225;-72
2022/06/01 08:35:04;;;;;;;6.22;4.00;;;;;;;;;;5038789;28;20637;-72
2022/06/01 08:37:30;;;;;;;5.00;4.30;;;;;;;;;;5035971;28;20194;-72
2022/06/01 08:39:55;;;;;;;4.70;4.15;;;;;;;;;;5042769;28;20641;-71
2022/06/01 08:42:23;;;;;;;4.63;3.88;;;;;;;;;;5032631;28;20602;-69
2022/06/01 08:44:50;;;;;;;5.55;3.60;;;;;;;;;;5038680;28;20242;-66
2022/06/01 08:47:26;;;;;;;3.45;3.13;;;;;;;;;;5040916;28;20174;-66
2022/06/01 08:49:52;;;;;;;3.92;2.58;;;;;;;;;;5018289;28;20190;-66
2022/06/01 08:52:21;;;;;;;4.50;3.25;;;;;;;;;;5032552;28;20244;-71
2022/06/01 08:54:46;;;;;;;3.95;3.17;;;;;;;;;;5039440;28;20182;-67
2022/06/01 08:57:20;;;;;;;4.43;3.80;;;;;;;;;;5040074;28;20213;-68
2022/06/01 09:00:08;;;;;;;4.45;3.42;;;;;;;;;;5042908;28;20231;-68
2022/06/01 09:03:10;;;;;;;3.90;3.38;;;;;;;;;;5034778;28;20182;-72
2022/06/01 09:05:52;;;;;;;4.05;3.47;;;;;;;;;;5040949;28;20705;-69
2022/06/01 09:08:23;;;;;;;3.85;2.47;;;;;;;;;;5032804;28;20174;-70
2022/06/01 09:11:05;;;;;;;5.72;2.50;;;;;;;;;;5037052;28;20673;-69
2022/06/01 09:13:52;;;;;;;5.07;2.42;;;;;;;;;;5029666;28;20268;-69
2022/06/01 09:16:28;;;;;;;6.60;3.67;;;;;;;;;;5038611;28;20200;-71
2022/06/01 09:18:54;;;;;;;4.10;3.42;;;;;;;;;;5034649;28;20174;-74
2022/06/01 09:24:20;;;;;;;6.45;3.55;;;;;;;;;;5033169;28;20304;-71
2022/06/01 09:26:54;;;;;;;5.45;3.60;;;;;;;;;;5027889;28;20530;-74
2022/06/01 09:29:27;;;;;;;3.00;2.70;;;;;;;;;;5034303;28;20207;-75
2022/06/01 09:32:07;;;;;;;3.15;2.78;;;;;;;;;;5026016;28;20495;-70
2022/06/01 09:34:44;;;;;;;4.10;2.75;;;;;;;;;;5027828;28;20198;-72
2022/06/01 09:37:18;;;;;;;5.57;2.88;;;;;;;;;;5027609;28;20267;-70
2022/06/01 09:40:04;;;;;;;3.03;2.67;;;;;;;;;;5040152;28;20214;-69
2022/06/01 09:42:37;;;;;;;3.58;3.08;;;;;;;;;;5029455;28;20359;-66
2022/06/01 09:45:13;;;;;;;4.53;3.17;;;;;;;;;;5033076;28;20232;-66
2022/06/01 09:47:42;;;;;;;3.00;2.70;;;;;;;;;;5044115;28;20704;-69
2022/06/01 09:50:34;;;;;;;3.70;3.00;;;;;;;;;;5034807;28;20185;-70
2022/06/01 09:53:18;;;;;;;3.17;2.70;;;;;;;;;;5031812;28;20174;-70
2022/06/01 09:55:58;;;;;;;5.25;2.75;;;;;;;;;;5030507;28;20206;-72
2022/06/01 10:07:05;;;;;;;4.03;2.35;;;;;;;;;;5032535;28;20637;-70
2022/06/01 10:09:32;;;;;;;4.10;2.08;;;;;;;;;;5015899;28;20213;-70
2022/06/01 10:12:14;;;;;;;3.10;2.05;;;;;;;;;;5027109;28;20230;-70
2022/06/01 10:14:42;;;;;;;3.80;2.00;;;;;;;;;;5027649;28;20190;-68
2022/06/01 10:17:21;;;;;;;3.22;2.22;;;;;;;;;;5040937;28;20578;-72
2022/06/01 10:20:28;;;;;;;2.78;2.50;;;;;;;;;;5036811;28;20185;-73
2022/06/01 10:23:03;;;;;;;2.33;1.73;;;;;;;;;;5037097;28;20185;-68
2022/06/01 10:25:51;;;;;;;3.15;1.50;;;;;;;;;;5035696;28;20181;-67
2022/06/01 10:28:25;;;;;;;0.95;0.80;;;;;;;;;;5031889;28;20249;-72
2022/06/01 10:30:58;;;;;;;0.90;0.80;;;;;;;;;;5036807;28;20205;-70
2022/06/01 10:33:23;;;;;;;2.67;1.20;;;;;;;;;;5038525;28;20335;-68
2022/06/01 10:36:12;;;;;;;4.10;1.13;;;;;;;;;;5033548;28;20206;-66
2022/06/01 10:38:46;;;;;;;1.40;0.90;;;;;;;;;;5034072;28;20186;-69
2022/06/01 10:41:17;;;;;;;4.10;0.50;;;;;;;;;;5045995;28;20187;-70
2022/06/01 10:43:45;;;;;;;0.60;0.60;;;;;;;;;;5032063;28;20264;-67
2022/06/01 10:46:22;;;;;;;0.63;0.45;;;;;;;;;;5040587;28;20583;-67
2022/06/01 10:49:07;;;;;;;0.40;0.35;;;;;;;;;;5038244;28;20182;-69
2022/06/01 10:51:34;;;;;;;0.45;0.45;;;;;;;;;;5035775;28;20177;-73
2022/06/01 10:54:10;;;;;;;1.50;0.45;;;;;;;;;;5039652;28;20295;-69
2022/06/01 10:56:36;;;;;;;0.52;0.30;;;;;;;;;;5035147;28;20209;-70
2022/06/01 10:59:07;;;;;;;0.47;0.40;;;;;;;;;;5037947;28;20182;-69
2022/06/01 11:01:55;;;;;;;0.85;0.35;;;;;;;;;;5038147;28;20165;-68
2022/06/01 11:04:44;;;;;;;1.20;0.50;;;;;;;;;;5042813;28;20323;-74
2022/06/01 11:07:41;;;;;;;1.52;0.43;;;;;;;;;;5031890;28;20174;-71
2022/06/01 11:10:23;;;;;;;0.68;0.60;;;;;;;;;;4993499;28;20279;-67
2022/06/01 11:13:07;;;;;;;1.85;0.50;;;;;;;;;;5039139;28;20276;-72
2022/06/01 11:15:36;;;;;;;1.95;0.60;;;;;;;;;;5050102;28;20185;-74
2022/06/01 11:18:05;;;;;;;1.15;0.50;;;;;;;;;;5047959;28;20178;-74
2022/06/01 11:20:48;;;;;;;0.60;0.40;;;;;;;;;;5049110;28;20272;-73
2022/06/01 11:23:23;;;;;;;0.80;0.40;;;;;;;;;;5048892;28;20688;-72
2022/06/01 11:26:12;;;;;;;1.05;0.50;;;;;;;;;;5038054;28;20197;-67
2022/06/01 11:28:53;;;;;;;0.55;0.30;;;;;;;;;;5045174;28;20621;-68
2022/06/01 11:31:21;;;;;;;0.65;0.40;;;;;;;;;;5048591;28;20617;-73
2022/06/01 11:33:53;;;;;;;0.52;0.50;;;;;;;;;;5030426;28;20174;-73
2022/06/01 11:36:37;;;;;;;0.98;0.50;;;;;;;;;;5043864;28;20201;-68
2022/06/01 11:39:19;;;;;;;1.05;0.40;;;;;;;;;;5034641;28;20645;-73
2022/06/01 11:42:03;;;;;;;0.60;0.43;;;;;;;;;;5029842;28;20666;-68
2022/06/01 11:44:35;;;;;;;0.68;0.55;;;;;;;;;;5043203;28;20178;-68
2022/06/01 11:47:09;;;;;;;1.27;0.77;;;;;;;;;;5040011;28;20178;-68
2022/06/01 11:49:37;;;;;;;1.13;0.77;;;;;;;;;;5032740;28;20268;-69
2022/06/01 11:52:44;;;;;;;1.40;1.00;;;;;;;;;;5042990;28;20205;-71
2022/06/01 11:55:16;;;;;;;1.73;0.70;;;;;;;;;;5032924;28;20633;-68
2022/06/01 11:57:44;;;;;;;1.13;0.75;;;;;;;;;;5037261;28;20209;-70
2022/06/01 12:00:20;;;;;;;1.50;0.90;;;;;;;;;;5043808;28;20532;-66
2022/06/01 12:02:50;;;;;;;1.75;1.00;;;;;;;;;;5033376;28;20192;-68
2022/06/01 12:05:32;;;;;;;0.85;0.80;;;;;;;;;;5030077;28;20190;-73
2022/06/01 12:08:01;;;;;;;3.97;0.80;;;;;;;;;;5040786;28;20578;-67
2022/06/01 12:10:47;;;;;;;1.50;1.02;;;;;;;;;;5029531;28;20208;-72
2022/06/01 12:13:28;;;;;;;1.10;0.95;;;;;;;;;;5036850;28;20241;-67
2022/06/01 12:16:25;;;;;;;1.55;1.15;;;;;;;;;;5032263;28;20208;-70
2022/06/01 12:19:08;;;;;;;1.23;1.13;;;;;;;;;;5044115;28;20190;-68
2022/06/01 12:21:53;;;;;;;1.20;1.10;;;;;;;;;;5033547;28;20587;-73
2022/06/01 12:30:08;;;;;;;2.67;1.58;;;;;;;;;;5040476;28;20707;-67
2022/06/01 12:32:58;;;;;;;2.10;1.77;;;;;;;;;;5050853;28;20756;-67
2022/06/01 12:35:31;;;;;;;1.55;1.45;;;;;;;;;;5036979;28;20193;-70
2022/06/01 12:38:05;;;;;;;3.63;1.30;;;;;;;;;;5048174;28;20191;-70
2022/06/01 12:40:31;;;;;;;2.65;1.30;;;;;;;;;;5048969;28;20180;-68
2022/06/01 12:43:00;;;;;;;2.50;1.33;;;;;;;;;;5035623;28;20169;-68
2022/06/01 12:45:37;;;;;;;4.10;1.50;;;;;;;;;;5039987;28;20190;-70
2022/06/01 12:48:09;;;;;;;2.35;1.73;;;;;;;;;;5035012;28;20176;-72
2022/06/01 12:50:56;;;;;;;4.45;2.20;;;;;;;;;;5029149;28;20190;-71
2022/06/01 12:53:28;;;;;;;4.82;2.17;;;;;;;;;;5034226;28;20546;-75
2022/06/01 12:56:09;;;;;;;2.42;2.22;;;;;;;;;;5034940;28;20212;-77
2022/06/01 12:58:36;;;;;;;2.65;2.42;;;;;;;;;;5045130;28;20205;-74
2022/06/01 13:01:03;;;;;;;3.08;2.80;;;;;;;;;;5036044;28;20178;-73
2022/06/01 13:03:33;;;;;;;5.93;2.17;;;;;;;;;;5043880;28;20178;-74
2022/06/01 13:06:03;;;;;;;5.05;3.10;;;;;;;;;;5045170;28;20169;-74
2022/06/01 13:08:37;;;;;;;3.47;2.03;;;;;;;;;;5047219;28;20177;-71
2022/06/01 13:11:25;;;;;;;5.07;2.17;;;;;;;;;;5050742;28;20177;-72
2022/06/01 13:13:51;;;;;;;4.47;1.92;;;;;;;;;;5039792;28;20287;-74
2022/06/01 13:16:19;;;;;;;6.35;2.35;;;;;;;;;;5033219;28;20251;-72
2022/06/01 13:18:45;;;;;;;6.40;2.40;;;;;;;;;;5047683;28;20178;-75
2022/06/01 13:21:18;;;;;;;5.40;2.67;;;;;;;;;;5036171;28;20269;-72
2022/06/01 13:23:52;;;;;;;5.88;2.45;;;;;;;;;;5035443;28;20269;-76
2022/06/01 13:26:28;;;;;;;5.45;3.00;;;;;;;;;;5038690;28;20216;-75
2022/06/01 13:28:54;;;;;;;4.65;2.97;;;;;;;;;;5039076;28;20631;-75
2022/06/01 13:31:20;;;;;;;4.85;2.30;;;;;;;;;;5030718;28;20225;-70
2022/06/01 13:33:48;;;;;;;4.65;2.88;;;;;;;;;;5028418;28;20196;-72
2022/06/01 13:36:28;;;;;;;4.97;2.50;;;;;;;;;;5037047;28;20293;-76
2022/06/01 13:39:05;;;;;;;6.22;3.47;;;;;;;;;;5045164;28;20572;-75
2022/06/01 13:41:43;;;;;;;7.30;3.70;;;;;;;;;;5046191;28;20230;-76
2022/06/01 13:44:09;;;;;;;3.90;3.50;;;;;;;;;;5051460;28;20181;-75
2022/06/01 13:46:40;;;;;;;5.07;3.65;;;;;;;;;;5034384;28;20178;-79
2022/06/01 13:49:11;;;;;;;3.95;3.28;;;;;;;;;;5033327;28;20185;-74
2022/06/01 13:51:59;;;;;;;5.55;4.07;;;;;;;;;;5036974;28;20178;-74
2022/06/01 13:54:24;;;;;;;5.63;3.78;;;;;;;;;;5053656;28;20557;-74
2022/06/01 13:57:19;;;;;;;4.20;3.67;;;;;;;;;;5038467;28;20213;-73
2022/06/01 13:59:54;;;;;;;5.18;4.28;;;;;;;;;;5040192;28;20659;-72
2022/06/01 14:02:54;;;;;;;6.78;4.10;;;;;;;;;;5052703;28;20193;-73
2022/06/01 14:05:31;;;;;;;7.93;4.65;;;;;;;;;;5042431;28;20186;-72
2022/06/01 14:08:10;;;;;;;4.30;3.90;;;;;;;;;;5045793;28;20181;-71
2022/06/01 14:10:57;;;;;;;6.38;4.53;;;;;;;;;;5043528;28;20393;-72
2022/06/01 14:13:24;;;;;;;5.32;4.78;;;;;;;;;;5038678;28;20235;-73
2022/06/01 14:15:51;;;;;;;5.47;4.93;;;;;;;;;;5042713;28;20182;-72
2022/06/01 14:18:26;;;;;;;5.78;5.20;;;;;;;;;;5047584;28;20229;-72
2022/06/01 14:20:53;;;;;;;9.05;5.50;;;;;;;;;;5041443;28;20213;-72
2022/06/01 14:23:20;;;;;;;6.00;5.28;;;;;;;;;;5048173;28;20221;-71
2022/06/01 14:28:32;;;;;;;9.63;6.70;;;;;;;;;;5035340;28;20192;-73
2022/06/01 14:31:13;;;;;;;8.18;6.15;;;;;;;;;;5036475;28;20193;-72
2022/06/01 14:33:40;;;;;;;6.95;5.70;;;;;;;;;;5035624;28;20355;-73
2022/06/01 14:36:06;;;;;;;6.35;5.75;;;;;;;;;;5043315;28;20709;-74
2022/06/01 14:38:33;;;;;;;6.25;5.65;;;;;;;;;;5037710;28;20186;-74
2022/06/01 14:41:03;;;;;;;6.10;5.53;;;;;;;;;;5045277;28;20244;-73
2022/06/01 14:43:33;;;;;;;6.97;5.15;;;;;;;;;;5043297;28;20270;-75
2022/06/01 14:45:58;;;;;;;6.40;5.80;;;;;;;;;;5035135;28;20276;-73
2022/06/01 14:48:24;;;;;;;6.35;4.60;;;;;;;;;;5043857;28;20808;-74
2022/06/01 14:50:50;;;;;;;4.78;2.60;;;;;;;;;;5039999;28;20178;-75
2022/06/01 14:53:24;;;;;;;3.20;2.05;;;;;;;;;;5043092;28;20600;-70
2022/06/01 14:55:50;;;;;;;1.85;1.60;;;;;;;;;;5037326;28;20181;-70
2022/06/01 14:58:16;;;;;;;4.03;1.70;;;;;;;;;;5038767;28;20186;-73
2022/06/01 15:00:43;;;;;;;1.83;1.70;;;;;;;;;;5039576;28;20546;-67
2022/06/01 15:03:11;;;;;;;1.58;1.38;;;;;;;;;;5033252;28;20174;-68
2022/06/01 15:05:37;;;;;;;1.73;1.20;;;;;;;;;;5034742;28;20531;-68
2022/06/01 15:08:03;;;;;;;1.85;1.15;;;;;;;;;;5035454;28;20228;-69
2022/06/01 15:10:28;;;;;;;3.90;1.30;;;;;;;;;;5031925;28;20182;-69
2022/06/01 15:12:56;;;;;;;1.42;1.33;;;;;;;;;;5035095;28;20693;-72
2022/06/01 15:15:22;;;;;;;2.22;1.40;;;;;;;;;;5036955;28;20186;-69
2022/06/01 15:17:48;;;;;;;2.00;1.42;;;;;;;;;;5032998;28;20392;-72
2022/06/01 15:20:15;;;;;;;4.40;1.45;;;;;;;;;;5042247;28;20182;-67
2022/06/01 15:22:41;;;;;;;1.20;1.10;;;;;;;;;;5034378;28;20178;-71
2022/06/01 15:25:07;;;;;;;1.85;1.00;;;;;;;;;;5045445;28;20184;-69
2022/06/01 15:27:33;;;;;;;0.90;0.90;;;;;;;;;;5035323;28;20525;-70
2022/06/01 15:40:56;;;;;;;1.33;1.13;;;;;;;;;;5032901;28;20186;-69